Time;durP1;ratioP1;P1;durP2;ratioP2;P2;SDS_P1;SDS_P2;PMS_P1;PMS_P2;Temp;Humidity;BMP_temperature;BMP_pressure;BME280_temperature;BME280_humidity;BME280_pressure;Samples;Min_cycle;Max_cycle;Signal;HPM_P1;HPM_P2
2023/01/15 00:01:30;;;;;;;;;;;154.00;2252.80;;;;;;4999582;28;19923;-83
2023/01/15 00:03:57;;;;;;;;;;;153.90;2252.80;;;;;;4998818;28;19906;-83
2023/01/15 00:06:23;;;;;;;;;;;153.90;2252.80;;;;;;5002675;28;20248;-79
2023/01/15 00:08:49;;;;;;;;;;;153.80;2252.80;;;;;;5003369;28;19908;-83
2023/01/15 00:11:15;;;;;;;;;;;153.80;2252.80;;;;;;5004708;28;19913;-84
2023/01/15 00:13:42;;;;;;;;;;;153.90;2252.80;;;;;;5027797;28;20275;-82
2023/01/15 00:16:10;;;;;;;;;;;153.90;2252.80;;;;;;5024885;28;19959;-84
2023/01/15 00:18:35;;;;;;;;;;;154.00;2252.80;;;;;;5004781;28;20004;-84
2023/01/15 00:21:03;;;;;;;;;;;154.10;2252.80;;;;;;5006234;28;19996;-83
2023/01/15 00:29:00;;;;;;;;;;;154.30;2252.80;;;;;;5019046;28;19912;-83
2023/01/15 00:31:26;;;;;;;;;;;154.40;2252.80;;;;;;5003748;28;19909;-79
2023/01/15 00:33:52;;;;;;;;;;;154.50;2252.80;;;;;;5028138;28;19959;-83
2023/01/15 00:36:18;;;;;;;;;;;154.50;2252.80;;;;;;5011188;28;20000;-84
2023/01/15 00:38:44;;;;;;;;;;;179.20;2252.80;;;;;;5005077;28;19916;-84
2023/01/15 00:41:09;;;;;;;;;;;179.30;2252.80;;;;;;5002576;28;19924;-84
2023/01/15 00:43:35;;;;;;;;;;;179.30;2252.80;;;;;;5022407;28;20299;-82
2023/01/15 00:46:00;;;;;;;;;;;179.20;2252.80;;;;;;4992216;28;19936;-84
2023/01/15 00:48:26;;;;;;;;;;;154.50;2252.80;;;;;;5004960;28;19948;-84
2023/01/15 00:50:51;;;;;;;;;;;154.50;2252.80;;;;;;4998856;28;19906;-84
2023/01/15 00:53:17;;;;;;;;;;;179.20;2252.80;;;;;;5002949;28;19905;-83
2023/01/15 00:55:43;;;;;;;;;;;179.30;2252.80;;;;;;5009860;28;19952;-83
2023/01/15 00:58:08;;;;;;;;;;;179.30;2252.80;;;;;;5006423;28;19917;-83
2023/01/15 01:00:34;;;;;;;;;;;179.20;2252.80;;;;;;5002811;28;19964;-84
2023/01/15 01:02:59;;;;;;;;;;;179.20;2252.80;;;;;;5001475;28;19905;-83
2023/01/15 01:05:25;;;;;;;;;;;154.50;2252.80;;;;;;5002593;28;19906;-84
2023/01/15 01:07:50;;;;;;;;;;;154.50;2252.80;;;;;;5005733;28;20351;-83
2023/01/15 01:10:16;;;;;;;;;;;179.20;2252.80;;;;;;5005744;28;19916;-84
2023/01/15 01:12:42;;;;;;;;;;;154.50;2252.80;;;;;;5023981;28;19913;-84
2023/01/15 01:15:08;;;;;;;;;;;179.20;2252.80;;;;;;5002905;28;19906;-82
2023/01/15 01:17:36;;;;;;;;;;;179.20;2252.80;;;;;;5004316;28;19920;-82
2023/01/15 01:20:02;;;;;;;;;;;179.30;2252.80;;;;;;5000848;28;19909;-84
2023/01/15 01:22:28;;;;;;;;;;;179.20;2252.80;;;;;;5013916;28;20372;-84
2023/01/15 01:24:54;;;;;;;;;;;179.30;2252.80;;;;;;5005561;28;19972;-84
2023/01/15 01:27:19;;;;;;;;;;;179.30;2252.80;;;;;;5004046;28;19954;-83
2023/01/15 01:29:45;;;;;;;;;;;179.30;2252.80;;;;;;5006278;28;20012;-83
2023/01/15 01:32:10;;;;;;;;;;;179.30;2252.80;;;;;;5003829;28;20344;-84
2023/01/15 01:34:36;;;;;;;;;;;179.30;2252.80;;;;;;5000173;28;19905;-83
2023/01/15 01:37:01;;;;;;;;;;;179.30;2252.80;;;;;;5011336;28;19905;-84
2023/01/15 01:39:27;;;;;;;;;;;179.30;2252.80;;;;;;5004252;28;20367;-84
2023/01/15 01:41:52;;;;;;;;;;;179.30;2252.80;;;;;;4998676;28;19980;-84
2023/01/15 01:44:30;;;;;;;;;;;179.30;2252.80;;;;;;5007331;28;19992;-84
2023/01/15 01:46:56;;;;;;;;;;;179.30;2252.80;;;;;;4995128;28;19908;-84
2023/01/15 01:49:23;;;;;;;;;;;179.30;2252.80;;;;;;5004183;28;20256;-85
2023/01/15 01:51:50;;;;;;;;;;;179.30;2252.80;;;;;;5004220;28;19905;-84
2023/01/15 01:54:19;;;;;;;;;;;179.30;2252.80;;;;;;4989360;28;19906;-83
2023/01/15 01:56:44;;;;;;;;;;;179.30;2252.80;;;;;;5001359;28;19971;-84
2023/01/15 01:59:10;;;;;;;;;;;179.50;2252.80;;;;;;4999950;28;19906;-83
2023/01/15 02:01:36;;;;;;;;;;;179.50;2252.80;;;;;;5018304;28;19913;-82
2023/01/15 02:04:05;;;;;;;;;;;179.50;2252.80;;;;;;4997820;28;19912;-82
2023/01/15 02:06:30;;;;;;;;;;;179.60;2252.80;;;;;;5003180;28;19912;-83
2023/01/15 02:08:56;;;;;;;;;;;179.70;2252.80;;;;;;4997497;28;19914;-83
2023/01/15 02:11:22;;;;;;;;;;;179.60;2252.80;;;;;;5000355;28;19909;-83
2023/01/15 02:13:59;;;;;;;;;;;179.70;2252.80;;;;;;5023097;28;19951;-84
2023/01/15 02:16:35;;;;;;;;;;;179.70;2252.80;;;;;;5001626;28;20383;-83
2023/01/15 02:19:27;;;;;;;;;;;179.60;2252.80;;;;;;5000603;28;19905;-83
2023/01/15 02:22:07;;;;;;;;;;;179.70;2252.80;;;;;;4977150;28;19924;-84
2023/01/15 02:24:51;;;;;;;;;;;179.50;2252.80;;;;;;5012502;28;19905;-84
2023/01/15 02:27:21;;;;;;;;;;;179.50;2252.80;;;;;;5019417;28;19905;-81
2023/01/15 02:29:58;;;;;;;;;;;179.40;2252.80;;;;;;4999090;28;19927;-84
2023/01/15 02:32:30;;;;;;;;;;;179.40;2252.80;;;;;;4995262;28;19909;-84
2023/01/15 02:34:59;;;;;;;;;;;179.40;2252.80;;;;;;5008131;28;19971;-83
2023/01/15 02:37:26;;;;;;;;;;;179.40;2252.80;;;;;;5011784;28;19909;-81
2023/01/15 02:39:53;;;;;;;;;;;179.30;2252.80;;;;;;5003450;28;19968;-84
2023/01/15 02:42:20;;;;;;;;;;;179.30;2252.80;;;;;;5022137;28;19921;-84
2023/01/15 02:44:48;;;;;;;;;;;179.20;2252.80;;;;;;5002926;28;19951;-82
2023/01/15 02:47:15;;;;;;;;;;;179.20;2252.80;;;;;;5002500;28;19905;-83
2023/01/15 02:49:41;;;;;;;;;;;179.20;2252.80;;;;;;5007554;28;19906;-84
2023/01/15 02:52:09;;;;;;;;;;;179.30;2201.60;;;;;;5007549;28;19905;-84
2023/01/15 02:54:44;;;;;;;;;;;154.50;2252.80;;;;;;5007394;28;19913;-82
2023/01/15 02:57:10;;;;;;;;;;;154.50;1920.00;;;;;;5011490;28;19975;-83
2023/01/15 02:59:38;;;;;;;;;;;154.50;2252.80;;;;;;5014578;28;19916;-79
2023/01/15 03:02:05;;;;;;;;;;;154.40;2252.80;;;;;;5019180;28;19948;-84
2023/01/15 03:04:32;;;;;;;;;;;154.40;2252.80;;;;;;5019031;28;19905;-82
2023/01/15 03:06:58;;;;;;;;;;;154.40;1920.00;;;;;;5018731;28;19958;-83
2023/01/15 03:09:24;;;;;;;;;;;154.30;2124.80;;;;;;5036018;28;19992;-83
2023/01/15 03:12:03;;;;;;;;;;;154.30;2252.80;;;;;;5018874;28;19968;-84
2023/01/15 03:14:35;;;;;;;;;;;154.30;2252.80;;;;;;5013332;28;19912;-84
2023/01/15 03:17:04;;;;;;;;;;;154.10;2252.80;;;;;;5036453;28;20024;-83
2023/01/15 03:19:35;;;;;;;;;;;154.10;2252.80;;;;;;5017135;28;19949;-83
2023/01/15 03:22:16;;;;;;;;;;;154.10;2252.80;;;;;;5015800;28;19948;-83
2023/01/15 03:24:53;;;;;;;;;;;153.90;2252.80;;;;;;5036469;28;19905;-84
2023/01/15 03:27:18;;;;;;;;;;;153.90;2252.80;;;;;;5036324;28;20009;-83
2023/01/15 03:29:46;;;;;;;;;;;153.90;2252.80;;;;;;5036616;28;19905;-83
2023/01/15 03:32:11;;;;;;;;;;;153.80;2252.80;;;;;;5018859;28;20359;-83
2023/01/15 03:34:45;;;;;;;;;;;153.80;2252.80;;;;;;5036332;28;19952;-83
2023/01/15 03:37:11;;;;;;;;;;;153.80;2252.80;;;;;;5033368;28;19971;-83
2023/01/15 03:39:37;;;;;;;;;;;153.80;2252.80;;;;;;5017739;28;20291;-85
2023/01/15 03:42:12;;;;;;;;;;;153.70;2252.80;;;;;;5018779;28;19913;-84
2023/01/15 03:44:56;;;;;;;;;;;153.90;2252.80;;;;;;5018647;28;19960;-83
2023/01/15 03:47:25;;;;;;;;;;;153.80;2252.80;;;;;;5026595;28;19904;-83
2023/01/15 03:49:56;;;;;;;;;;;153.90;2252.80;;;;;;5018624;28;19905;-83
2023/01/15 03:52:43;;;;;;;;;;;153.80;2252.80;;;;;;5036077;28;19959;-84
2023/01/15 03:55:11;;;;;;;;;;;153.90;2252.80;;;;;;5016505;28;19948;-83
2023/01/15 03:57:37;;;;;;;;;;;153.80;2252.80;;;;;;5007514;28;19968;-79
2023/01/15 04:00:07;;;;;;;;;;;153.80;2252.80;;;;;;5033058;28;19967;-83
2023/01/15 04:02:33;;;;;;;;;;;153.90;2252.80;;;;;;5035864;28;19905;-84
2023/01/15 04:04:59;;;;;;;;;;;153.90;2252.80;;;;;;5007389;28;19956;-83
2023/01/15 04:07:25;;;;;;;;;;;153.80;2252.80;;;;;;5017578;28;20343;-83
2023/01/15 04:09:51;;;;;;;;;;;153.80;2252.80;;;;;;5012050;28;19909;-82
2023/01/15 04:12:16;;;;;;;;;;;153.80;2252.80;;;;;;5018145;28;19916;-83
2023/01/15 04:14:42;;;;;;;;;;;153.80;2252.80;;;;;;5018271;28;19905;-82
2023/01/15 04:17:07;;;;;;;;;;;153.80;2252.80;;;;;;5017949;28;20003;-82
2023/01/15 04:19:33;;;;;;;;;;;153.80;2252.80;;;;;;5018164;28;19947;-83
2023/01/15 04:21:59;;;;;;;;;;;153.80;2252.80;;;;;;5018095;28;19909;-84
2023/01/15 04:24:24;;;;;;;;;;;153.80;2252.80;;;;;;5017989;28;19916;-84
2023/01/15 04:26:50;;;;;;;;;;;153.90;2252.80;;;;;;5017732;28;19975;-84
2023/01/15 04:29:15;;;;;;;;;;;153.90;2252.80;;;;;;5017217;28;19905;-84
2023/01/15 04:31:41;;;;;;;;;;;154.00;1996.80;;;;;;5017594;28;19905;-84
2023/01/15 04:34:06;;;;;;;;;;;154.00;2252.80;;;;;;5017705;28;19956;-84
2023/01/15 04:36:35;;;;;;;;;;;153.90;2252.80;;;;;;5017923;28;19905;-84
2023/01/15 04:39:04;;;;;;;;;;;153.90;2252.80;;;;;;5017573;28;19952;-84
2023/01/15 04:44:14;;;;;;;;;;;153.90;2252.80;;;;;;5033336;28;20413;-83
2023/01/15 04:46:42;;;;;;;;;;;153.80;2252.80;;;;;;5017152;28;19905;-84
2023/01/15 04:49:09;;;;;;;;;;;153.70;2252.80;;;;;;5034679;28;19912;-78
2023/01/15 04:51:34;;;;;;;;;;;153.60;2252.80;;;;;;5016204;28;20003;-79
2023/01/15 04:54:01;;;;;;;;;;;128.90;2252.80;;;;;;5015850;28;19941;-79
2023/01/15 04:56:26;;;;;;;;;;;153.60;2252.80;;;;;;5016155;28;19993;-78
2023/01/15 04:58:52;;;;;;;;;;;153.60;2252.80;;;;;;5016354;28;19942;-78
2023/01/15 05:01:18;;;;;;;;;;;128.90;2252.80;;;;;;5016133;28;19913;-78
2023/01/15 05:03:43;;;;;;;;;;;128.80;2176.00;;;;;;5015063;28;19979;-84
2023/01/15 05:06:09;;;;;;;;;;;128.80;2252.80;;;;;;5015992;28;20000;-78
2023/01/15 05:08:35;;;;;;;;;;;128.70;2252.80;;;;;;5016177;28;19909;-78
2023/01/15 05:11:04;;;;;;;;;;;128.70;2048.00;;;;;;5016096;28;19959;-78
2023/01/15 05:13:32;;;;;;;;;;;128.60;2252.80;;;;;;5016077;28;19924;-78
2023/01/15 05:16:07;;;;;;;;;;;128.40;2252.80;;;;;;5016076;28;19908;-77
2023/01/15 05:18:32;;;;;;;;;;;128.20;2252.80;;;;;;5016129;28;19905;-76
2023/01/15 05:20:58;;;;;;;;;;;128.30;2252.80;;;;;;5033477;28;20015;-84
2023/01/15 05:23:23;;;;;;;;;;;128.20;2252.80;;;;;;5015314;28;20418;-78
2023/01/15 05:25:49;;;;;;;;;;;128.00;2252.80;;;;;;5016170;28;19909;-78
2023/01/15 05:28:14;;;;;;;;;;;103.30;2227.20;;;;;;5015770;28;19951;-77
2023/01/15 05:30:40;;;;;;;;;;;103.20;2227.20;;;;;;5015952;28;19905;-78
2023/01/15 05:33:05;;;;;;;;;;;103.10;2227.20;;;;;;5015945;28;19905;-78
2023/01/15 05:35:31;;;;;;;;;;;103.00;2227.20;;;;;;5015733;28;19951;-78
2023/01/15 05:37:57;;;;;;;;;;;102.90;2227.20;;;;;;5033475;28;19905;-78
2023/01/15 05:40:22;;;;;;;;;;;102.80;2227.20;;;;;;5015310;28;19909;-83
2023/01/15 05:42:48;;;;;;;;;;;102.80;2227.20;;;;;;5015003;28;19965;-78
2023/01/15 05:45:13;;;;;;;;;;;102.80;2227.20;;;;;;5014708;28;19920;-78
2023/01/15 05:47:39;;;;;;;;;;;102.70;2227.20;;;;;;5015578;28;19905;-78
2023/01/15 05:50:05;;;;;;;;;;;102.70;2227.20;;;;;;5015532;28;19936;-84
2023/01/15 05:52:30;;;;;;;;;;;102.70;2227.20;;;;;;5015255;28;20306;-78
2023/01/15 05:54:56;;;;;;;;;;;102.70;2227.20;;;;;;5015131;28;19945;-78
2023/01/15 05:57:21;;;;;;;;;;;102.70;2227.20;;;;;;5032840;28;19921;-78
2023/01/15 05:59:49;;;;;;;;;;;102.70;2227.20;;;;;;5015449;28;19996;-83
2023/01/15 06:02:14;;;;;;;;;;;102.60;2227.20;;;;;;5015919;28;19905;-78
2023/01/15 06:04:40;;;;;;;;;;;102.60;2227.20;;;;;;5033914;28;19912;-78
2023/01/15 06:07:06;;;;;;;;;;;102.60;2227.20;;;;;;5019399;28;19912;-80
2023/01/15 06:09:31;;;;;;;;;;;102.60;2227.20;;;;;;5015826;28;20003;-78
2023/01/15 06:11:57;;;;;;;;;;;102.70;2227.20;;;;;;5036608;28;19916;-78
2023/01/15 06:14:22;;;;;;;;;;;102.60;2227.20;;;;;;5036159;28;19909;-84
2023/01/15 06:16:48;;;;;;;;;;;102.60;2227.20;;;;;;5018431;28;19912;-78
2023/01/15 06:19:14;;;;;;;;;;;102.60;2227.20;;;;;;5018548;28;19905;-77
2023/01/15 06:21:40;;;;;;;;;;;102.70;2227.20;;;;;;5018313;28;20012;-84
2023/01/15 06:24:06;;;;;;;;;;;102.80;2227.20;;;;;;5018589;28;19909;-78
2023/01/15 06:26:32;;;;;;;;;;;102.80;2227.20;;;;;;5017376;28;19905;-85
2023/01/15 06:28:57;;;;;;;;;;;103.00;2227.20;;;;;;5019425;28;19963;-84
2023/01/15 06:31:25;;;;;;;;;;;102.90;2227.20;;;;;;5020150;28;20337;-82
2023/01/15 06:33:51;;;;;;;;;;;102.90;2227.20;;;;;;5019421;28;19916;-81
2023/01/15 06:36:20;;;;;;;;;;;102.90;2227.20;;;;;;5019510;28;19913;-87
2023/01/15 06:38:46;;;;;;;;;;;103.00;2227.20;;;;;;5020122;28;19909;-85
2023/01/15 06:49:29;;;;;;;;;;;103.00;2227.20;;;;;;5038627;28;19959;-81
2023/01/15 06:51:55;;;;;;;;;;;103.00;2227.20;;;;;;5018880;28;19995;-80
2023/01/15 06:54:20;;;;;;;;;;;103.10;2227.20;;;;;;5019170;28;20419;-79
2023/01/15 06:56:46;;;;;;;;;;;103.10;2227.20;;;;;;5019322;28;19916;-80
2023/01/15 06:59:12;;;;;;;;;;;103.10;2227.20;;;;;;5019124;28;19905;-80
2023/01/15 07:01:37;;;;;;;;;;;103.20;2227.20;;;;;;5021608;28;19959;-83
2023/01/15 07:04:03;;;;;;;;;;;103.20;2227.20;;;;;;5037174;28;19991;-76
2023/01/15 07:06:28;;;;;;;;;;;103.30;2227.20;;;;;;5019007;28;19905;-81
2023/01/15 07:08:54;;;;;;;;;;;103.20;2227.20;;;;;;5017771;28;19966;-85
2023/01/15 07:11:20;;;;;;;;;;;103.30;2227.20;;;;;;5019566;28;19951;-85
2023/01/15 07:13:45;;;;;;;;;;;103.30;2227.20;;;;;;5045277;28;19916;-80
2023/01/15 07:16:26;;;;;;;;;;;128.10;2252.80;;;;;;5042606;28;19905;-83
2023/01/15 07:18:53;;;;;;;;;;;128.00;2252.80;;;;;;5022099;28;19940;-79
2023/01/15 07:21:19;;;;;;;;;;;103.30;2227.20;;;;;;5028734;28;19913;-79
2023/01/15 07:23:44;;;;;;;;;;;103.30;2227.20;;;;;;5020005;28;19912;-77
2023/01/15 07:26:10;;;;;;;;;;;103.30;2227.20;;;;;;5027843;28;19909;-79
2023/01/15 07:28:35;;;;;;;;;;;128.00;2252.80;;;;;;5018854;28;19919;-77
2023/01/15 07:31:01;;;;;;;;;;;128.00;2252.80;;;;;;5022540;28;19913;-80
2023/01/15 07:33:26;;;;;;;;;;;128.10;2252.80;;;;;;5044433;28;19911;-83
2023/01/15 07:35:52;;;;;;;;;;;128.20;2252.80;;;;;;5044612;28;20351;-79
2023/01/15 07:38:18;;;;;;;;;;;128.20;2252.80;;;;;;5020118;28;20310;-77
2023/01/15 07:40:43;;;;;;;;;;;128.30;2252.80;;;;;;5038350;28;20011;-77
2023/01/15 07:51:22;;;;;;;;;;;128.60;2252.80;;;;;;5043594;28;19916;-81
2023/01/15 07:53:47;;;;;;;;;;;128.60;2252.80;;;;;;5018673;28;19905;-79
2023/01/15 07:56:13;;;;;;;;;;;128.70;2252.80;;;;;;5022770;28;20314;-82
2023/01/15 07:58:38;;;;;;;;;;;128.70;2252.80;;;;;;5020432;28;19917;-82
2023/01/15 08:01:04;;;;;;;;;;;128.70;2252.80;;;;;;5024255;28;19917;-93
2023/01/15 08:03:30;;;;;;;;;;;128.90;2252.80;;;;;;5023531;28;20361;-85
2023/01/15 08:05:55;;;;;;;;;;;128.90;2252.80;;;;;;5028509;28;19904;-80
2023/01/15 08:08:21;;;;;;;;;;;128.90;2252.80;;;;;;5022658;28;19952;-80
2023/01/15 08:16:15;;;;;;;;;;;153.60;2252.80;;;;;;5036613;28;20003;-82
2023/01/15 08:18:41;;;;;;;;;;;153.60;2252.80;;;;;;5028829;28;19960;-82
2023/01/15 08:21:11;;;;;;;;;;;128.80;2252.80;;;;;;5036433;28;19913;-81
2023/01/15 08:23:37;;;;;;;;;;;128.80;2252.80;;;;;;5020960;28;19955;-82
2023/01/15 08:26:04;;;;;;;;;;;128.80;2252.80;;;;;;5045061;28;20351;-83
2023/01/15 08:28:30;;;;;;;;;;;128.90;2252.80;;;;;;5019103;28;19916;-81
2023/01/15 08:30:56;;;;;;;;;;;128.90;2252.80;;;;;;5018347;28;20350;-79
2023/01/15 08:33:21;;;;;;;;;;;128.90;2252.80;;;;;;5027244;28;20369;-81
2023/01/15 08:35:47;;;;;;;;;;;153.60;2252.80;;;;;;5026416;28;19999;-81
2023/01/15 08:38:12;;;;;;;;;;;128.90;2252.80;;;;;;5016771;28;20355;-79
2023/01/15 08:40:57;;;;;;;;;;;128.90;2252.80;;;;;;5012618;28;19917;-81
2023/01/15 08:43:23;;;;;;;;;;;153.60;2252.80;;;;;;5024500;28;19909;-82
2023/01/15 08:45:48;;;;;;;;;;;153.70;2252.80;;;;;;5018810;28;19909;-82
2023/01/15 08:48:14;;;;;;;;;;;153.70;2252.80;;;;;;5033209;28;19907;-81
2023/01/15 08:50:39;;;;;;;;;;;153.80;2252.80;;;;;;5035092;28;19905;-83
2023/01/15 08:53:05;;;;;;;;;;;153.90;2252.80;;;;;;5037165;28;19912;-79
2023/01/15 08:55:31;;;;;;;;;;;154.00;2252.80;;;;;;5016873;28;20347;-87
2023/01/15 08:57:57;;;;;;;;;;;154.10;2252.80;;;;;;5018453;28;20264;-77
2023/01/15 09:00:23;;;;;;;;;;;154.10;2252.80;;;;;;5009724;28;19967;-77
2023/01/15 09:02:49;;;;;;;;;;;154.10;2252.80;;;;;;5017309;28;19944;-78
2023/01/15 09:05:15;;;;;;;;;;;154.20;2252.80;;;;;;5013032;28;19951;-84
2023/01/15 09:07:40;;;;;;;;;;;154.20;2022.40;;;;;;5005845;28;19905;-79
2023/01/15 09:10:06;;;;;;;;;;;154.20;2252.80;;;;;;5012718;28;19909;-82
2023/01/15 09:12:32;;;;;;;;;;;154.40;2099.20;;;;;;5016158;28;19909;-83
2023/01/15 09:14:57;;;;;;;;;;;154.50;2252.80;;;;;;5031137;28;19913;-79
2023/01/15 09:17:23;;;;;;;;;;;179.20;2252.80;;;;;;5020548;28;20023;-80
2023/01/15 09:19:48;;;;;;;;;;;179.20;2252.80;;;;;;5016296;28;19905;-79
2023/01/15 09:22:14;;;;;;;;;;;179.40;2252.80;;;;;;5015650;28;19916;-83
2023/01/15 09:24:40;;;;;;;;;;;179.40;2252.80;;;;;;5015694;28;19905;-83
2023/01/15 09:27:05;;;;;;;;;;;179.60;2252.80;;;;;;5015372;28;19916;-79
2023/01/15 09:29:31;;;;;;;;;;;179.60;2252.80;;;;;;5013266;28;19987;-83
2023/01/15 09:31:56;;;;;;;;;;;179.70;2252.80;;;;;;5015987;28;19912;-81
2023/01/15 09:34:22;;;;;;;;;;;179.70;2252.80;;;;;;5011956;28;19948;-86
2023/01/15 09:36:49;;;;;;;;;;;179.90;2252.80;;;;;;5016964;28;19909;-84
2023/01/15 09:39:15;;;;;;;;;;;179.70;1971.20;;;;;;5013294;28;20379;-78
2023/01/15 09:44:36;;;;;;;;;;;204.90;2252.80;;;;;;5029949;28;19913;-79
2023/01/15 09:47:06;;;;;;;;;;;204.90;2252.80;;;;;;5015328;28;19909;-81
2023/01/15 09:49:32;;;;;;;;;;;205.20;2252.80;;;;;;5025983;28;19905;-75
2023/01/15 09:52:09;;;;;;;;;;;205.30;2252.80;;;;;;5022471;28;19980;-77
2023/01/15 09:54:44;;;;;;;;;;;205.30;2252.80;;;;;;5009682;28;19905;-78
2023/01/15 09:57:13;;;;;;;;;;;205.30;2252.80;;;;;;4994875;28;19921;-79
2023/01/15 09:59:42;;;;;;;;;;;205.40;2252.80;;;;;;5012532;28;19952;-79
2023/01/15 10:02:29;;;;;;;;;;;205.50;2252.80;;;;;;5015645;28;19951;-80
2023/01/15 10:05:06;;;;;;;;;;;205.60;2252.80;;;;;;5015047;28;19905;-75
2023/01/15 10:07:43;;;;;;;;;;;205.70;2252.80;;;;;;5011329;28;19905;-76
2023/01/15 10:10:17;;;;;;;;;;;230.40;2252.80;;;;;;5006721;28;20410;-81
2023/01/15 10:12:44;;;;;;;;;;;230.70;2252.80;;;;;;5025990;28;19909;-78
2023/01/15 10:15:09;;;;;;;;;;;230.90;2252.80;;;;;;5015276;28;19912;-80
2023/01/15 10:17:44;;;;;;;;;;;230.90;2252.80;;;;;;5014885;28;19909;-76
2023/01/15 10:20:21;;;;;;;;;;;230.80;2252.80;;;;;;5014441;28;19935;-79
2023/01/15 10:22:46;;;;;;;;;;;230.90;2252.80;;;;;;5022430;28;19906;-78
2023/01/15 10:25:18;;;;;;;;;;;231.00;2252.80;;;;;;5015305;28;19912;-78
2023/01/15 10:27:45;;;;;;;;;;;231.10;2252.80;;;;;;5015272;28;19911;-78
2023/01/15 10:30:33;;;;;;;;;;;231.10;2252.80;;;;;;5008850;28;19905;-79
2023/01/15 10:33:01;;;;;;;;;;;231.30;2252.80;;;;;;5013022;28;19912;-79
2023/01/15 10:35:36;;;;;;;;;;;256.20;2252.80;;;;;;5014463;28;19905;-77
2023/01/15 10:38:32;;;;;;;;;;;256.20;2252.80;;;;;;5010933;28;19928;-77
2023/01/15 10:41:05;;;;;;;;;;;256.30;2252.80;;;;;;4932605;29;20001;-78
2023/01/15 10:43:43;;;;;;;;;;;256.30;2252.80;;;;;;4916856;29;19910;-75
2023/01/15 10:46:26;;;;;;;;;;;256.40;2252.80;;;;;;4916694;29;19914;-77
2023/01/15 10:48:55;;;;;;;;;;;256.40;2252.80;;;;;;4916876;29;20006;-76
2023/01/15 10:51:29;;;;;;;;;;;256.50;2252.80;;;;;;4918521;29;19918;-78
2023/01/15 10:54:01;;;;;;;;;;;256.60;2252.80;;;;;;4920901;29;19917;-78
2023/01/15 10:56:26;;;;;;;;;;;256.70;2252.80;;;;;;4920322;29;20014;-77
2023/01/15 10:59:15;;;;;;;;;;;256.90;2252.80;;;;;;4920801;29;19915;-78
2023/01/15 11:01:41;;;;;;;;;;;256.80;2252.80;;;;;;4912842;29;19922;-76
2023/01/15 11:04:12;;;;;;;;;;;256.90;2252.80;;;;;;4922048;29;19907;-80
2023/01/15 11:06:38;;;;;;;;;;;281.70;2278.40;;;;;;4936548;29;19906;-77
2023/01/15 11:09:04;;;;;;;;;;;256.90;2252.80;;;;;;4919951;29;19965;-78
2023/01/15 11:20:27;;;;;;;;;;;281.70;2278.40;;;;;;5025799;28;19933;-76
2023/01/15 11:22:53;;;;;;;;;;;281.90;2278.40;;;;;;5030671;28;19905;-76
2023/01/15 11:25:29;;;;;;;;;;;282.00;2278.40;;;;;;5016923;28;19909;-76
2023/01/15 11:27:55;;;;;;;;;;;282.20;2278.40;;;;;;5021021;28;19911;-75
2023/01/15 11:30:29;;;;;;;;;;;282.00;2278.40;;;;;;5017361;28;20359;-76
2023/01/15 11:32:56;;;;;;;;;;;281.80;2278.40;;;;;;5029990;28;19905;-76
2023/01/15 11:35:22;;;;;;;;;;;281.80;2278.40;;;;;;5025013;28;19905;-77
2023/01/15 11:37:47;;;;;;;;;;;281.80;2278.40;;;;;;5017301;28;19924;-77
2023/01/15 11:40:17;;;;;;;;;;;281.70;2278.40;;;;;;5017056;28;20317;-77
2023/01/15 11:51:11;;;;;;;;;;;281.70;2278.40;;;;;;5026723;28;19912;-77
2023/01/15 11:53:39;;;;;;;;;;;281.70;2278.40;;;;;;4999498;28;19906;-79
2023/01/15 11:56:06;;;;;;;;;;;281.60;2278.40;;;;;;5015905;28;19906;-78
2023/01/15 11:58:33;;;;;;;;;;;281.80;2278.40;;;;;;5019213;28;20264;-78
2023/01/15 12:00:59;;;;;;;;;;;281.80;2278.40;;;;;;5017285;28;20385;-78
2023/01/15 12:03:26;;;;;;;;;;;281.70;2278.40;;;;;;5042643;28;19905;-76
2023/01/15 12:05:54;;;;;;;;;;;281.70;2278.40;;;;;;5018143;28;19905;-78
2023/01/15 12:08:29;;;;;;;;;;;256.90;2252.80;;;;;;5019028;28;20021;-79
2023/01/15 12:11:03;;;;;;;;;;;256.90;2252.80;;;;;;5044962;28;19909;-77
2023/01/15 12:13:31;;;;;;;;;;;256.80;2252.80;;;;;;5046198;28;19905;-77
2023/01/15 12:16:10;;;;;;;;;;;256.80;2252.80;;;;;;5018180;28;19912;-77
2023/01/15 12:18:42;;;;;;;;;;;256.90;2252.80;;;;;;5016415;28;20003;-77
2023/01/15 12:21:28;;;;;;;;;;;256.90;2252.80;;;;;;5006159;28;19913;-76
2023/01/15 12:23:53;;;;;;;;;;;256.90;2252.80;;;;;;5034247;28;19931;-77
2023/01/15 12:26:27;;;;;;;;;;;256.90;2252.80;;;;;;5017455;28;20363;-76
2023/01/15 12:29:03;;;;;;;;;;;256.90;2252.80;;;;;;5017637;28;19991;-77
2023/01/15 12:31:35;;;;;;;;;;;281.70;2278.40;;;;;;5015453;28;20362;-77
2023/01/15 12:34:04;;;;;;;;;;;281.70;2278.40;;;;;;5030813;28;19905;-76
2023/01/15 12:36:37;;;;;;;;;;;281.70;2278.40;;;;;;5032752;28;19914;-77
2023/01/15 12:39:04;;;;;;;;;;;281.60;2278.40;;;;;;5007427;28;19909;-77
2023/01/15 12:47:15;;;;;;;;;;;256.70;2252.80;;;;;;5033098;28;19912;-77
2023/01/15 12:49:43;;;;;;;;;;;256.80;2252.80;;;;;;5036312;28;19988;-76
2023/01/15 12:52:10;;;;;;;;;;;256.80;2252.80;;;;;;5035228;28;19905;-76
2023/01/15 12:54:53;;;;;;;;;;;256.70;2252.80;;;;;;5015453;28;19974;-77
2023/01/15 12:57:32;;;;;;;;;;;256.70;2252.80;;;;;;5032200;28;19968;-76
2023/01/15 13:00:04;;;;;;;;;;;256.70;2252.80;;;;;;5035339;28;19911;-76
2023/01/15 13:02:36;;;;;;;;;;;256.70;2252.80;;;;;;5013627;28;20303;-76
2023/01/15 13:05:12;;;;;;;;;;;256.80;2252.80;;;;;;5015180;28;19905;-76
2023/01/15 13:07:42;;;;;;;;;;;256.80;2252.80;;;;;;5034440;28;19928;-77
2023/01/15 13:10:16;;;;;;;;;;;256.90;2252.80;;;;;;5016307;28;19909;-77
2023/01/15 13:12:41;;;;;;;;;;;256.80;2252.80;;;;;;5015046;28;19909;-77
2023/01/15 13:15:11;;;;;;;;;;;256.80;2252.80;;;;;;5015870;28;20282;-77
2023/01/15 13:17:52;;;;;;;;;;;256.80;2252.80;;;;;;5032572;28;19966;-77
2023/01/15 13:20:21;;;;;;;;;;;256.90;2252.80;;;;;;5015531;28;20036;-77
2023/01/15 13:22:53;;;;;;;;;;;256.80;2252.80;;;;;;5014341;28;19912;-77
2023/01/15 13:25:31;;;;;;;;;;;256.80;2252.80;;;;;;5014970;28;20420;-77
2023/01/15 13:27:59;;;;;;;;;;;256.90;2252.80;;;;;;5016588;28;19959;-77
2023/01/15 13:30:37;;;;;;;;;;;256.90;2252.80;;;;;;5015501;28;20008;-77
2023/01/15 13:33:12;;;;;;;;;;;256.90;2252.80;;;;;;5000720;28;20347;-77
2023/01/15 13:35:44;;;;;;;;;;;281.60;2278.40;;;;;;5012975;28;19904;-77
2023/01/15 13:38:15;;;;;;;;;;;256.90;2252.80;;;;;;5014547;28;19963;-76
2023/01/15 13:40:49;;;;;;;;;;;256.90;2252.80;;;;;;5015285;28;20410;-76
2023/01/15 13:43:40;;;;;;;;;;;256.90;2252.80;;;;;;5034684;28;19905;-78
2023/01/15 13:46:08;;;;;;;;;;;256.90;2252.80;;;;;;5031189;28;20000;-78
2023/01/15 13:48:48;;;;;;;;;;;256.90;2252.80;;;;;;5015550;28;20325;-78
2023/01/15 13:51:41;;;;;;;;;;;256.90;2252.80;;;;;;5015235;28;19911;-79
2023/01/15 13:54:15;;;;;;;;;;;256.90;2252.80;;;;;;5018454;28;20334;-77
2023/01/15 13:56:42;;;;;;;;;;;256.80;2252.80;;;;;;5044793;28;19909;-79
2023/01/15 13:59:26;;;;;;;;;;;256.80;2252.80;;;;;;5035855;28;19951;-78
2023/01/15 14:01:52;;;;;;;;;;;256.80;2252.80;;;;;;5014705;28;19913;-80
2023/01/15 14:04:31;;;;;;;;;;;256.70;2252.80;;;;;;5015563;28;19905;-79
2023/01/15 14:06:57;;;;;;;;;;;256.70;2252.80;;;;;;5035974;28;19911;-80
2023/01/15 14:09:22;;;;;;;;;;;256.70;2252.80;;;;;;5015046;28;19999;-81
2023/01/15 14:11:48;;;;;;;;;;;256.60;2252.80;;;;;;5009793;28;19913;-79
2023/01/15 14:14:40;;;;;;;;;;;256.60;2252.80;;;;;;5003504;28;19905;-81
2023/01/15 14:17:24;;;;;;;;;;;256.60;2252.80;;;;;;5006895;28;19916;-80
2023/01/15 14:19:52;;;;;;;;;;;256.60;2252.80;;;;;;5035593;28;19911;-81
2023/01/15 14:22:36;;;;;;;;;;;256.50;2252.80;;;;;;5036219;28;19996;-81
2023/01/15 14:25:17;;;;;;;;;;;256.50;2252.80;;;;;;5015397;28;19909;-80
2023/01/15 14:27:58;;;;;;;;;;;256.40;2252.80;;;;;;5019676;28;19912;-81
2023/01/15 14:30:30;;;;;;;;;;;256.40;2252.80;;;;;;5039141;28;19909;-79
2023/01/15 14:33:07;;;;;;;;;;;256.40;2252.80;;;;;;5018042;28;20379;-79
2023/01/15 14:35:34;;;;;;;;;;;256.30;2252.80;;;;;;5010542;28;19951;-80
2023/01/15 14:38:06;;;;;;;;;;;256.20;2252.80;;;;;;5018756;28;19912;-79
2023/01/15 14:40:33;;;;;;;;;;;256.20;2252.80;;;;;;5018248;28;19920;-81
2023/01/15 14:43:09;;;;;;;;;;;256.30;2252.80;;;;;;5018742;28;19924;-79
2023/01/15 14:45:37;;;;;;;;;;;256.20;2252.80;;;;;;5017833;28;19928;-79
2023/01/15 14:48:04;;;;;;;;;;;256.10;2252.80;;;;;;5039443;28;19905;-77